Главная страница
METAR-TAF:

METAR-TAF

Аэропорты :

Кастамону, Турция

широта: 41-19-01N, долгота: 33-47-46E, высота над уровнем моря: 1073 м

Текущие метеонаблюдения

Эта сводка был подготовлена 57 минут назад, в 01:50 UTC
Ветер 6 Узел от западный
Температура 10°C
Влажность 82%
Давление 1017 hPa
Видимость 10 км и более
Нет облачности ниже 1500 м, и нет кучево-дождевой облачности

METAR: LTAL 210150Z 27006KT CAVOK 10/07 Q1017

Время: 05:47 (02:47 UTC)

Прогноз

Эта сводка был подготовлена 1 час и 7 минут назад, в 01:40 UTC
Прогноз действительный с 21-го 03 UTC до 21-го 12 UTC
Ветер 8 Узел от северный
Видимость 10 км и более
Нет облачности ниже 1500 м, и нет кучево-дождевой облачности

TAF: LTAL 210140Z 2103/2112 01008KT CAVOK

Метеонаблюдения и прогнозы для более 4000 аэропортов (сводки METAR и TAF).

Имеющиеся станции представлены на карте желтыми и красными точками.

Чтобы увидеть название станции, наведите на нее мышь.

Затем щелкните, чтобы увидеть метеонаблюдения и метеопрогнозы.

Управление картой: чтобы увеличить масштаб, щелкните зеленые кнопки с черным крестиком; чтобы уменьшить масштаб, щелкните зеленую кнопку с тире; для просмотра соседних карт щелкайте зеленые стрелки.


METAR-TAF: